createdAt,value
2023-04-26T00:00:45.693Z,8.90
2023-04-26T00:03:13.485Z,7.77
2023-04-26T00:05:40.745Z,8.70
2023-04-26T00:08:07.314Z,8.63
2023-04-26T00:10:33.845Z,8.53
2023-04-26T00:13:00.448Z,9.47
2023-04-26T00:15:27.139Z,8.27
2023-04-26T00:17:53.703Z,8.63
2023-04-26T00:20:20.426Z,8.70
2023-04-26T00:22:46.905Z,8.60
2023-04-26T00:25:13.927Z,8.90
2023-04-26T00:27:40.554Z,10.27
2023-04-26T00:30:07.764Z,9.37
2023-04-26T00:32:35.607Z,8.50
2023-04-26T00:35:04.611Z,8.40
2023-04-26T00:37:31.233Z,8.37
2023-04-26T00:39:57.744Z,8.47
2023-04-26T00:42:24.322Z,8.93
2023-04-26T00:44:55.178Z,9.70
2023-04-26T00:47:21.719Z,10.90
2023-04-26T00:49:48.381Z,8.97
2023-04-26T00:52:15.393Z,8.20
2023-04-26T00:54:42.515Z,8.90
2023-04-26T00:57:09.896Z,9.67
2023-04-26T00:59:37.050Z,8.53
2023-04-26T01:02:04.006Z,9.00
2023-04-26T01:04:30.948Z,9.20
2023-04-26T01:06:58.358Z,8.30
2023-04-26T01:09:24.911Z,8.10
2023-04-26T01:11:52.578Z,8.40
2023-04-26T01:14:19.333Z,8.07
2023-04-26T01:16:48.780Z,8.53
2023-04-26T01:19:18.539Z,8.33
2023-04-26T01:21:45.726Z,8.00
2023-04-26T01:24:14.010Z,8.90
2023-04-26T01:26:45.590Z,7.33
2023-04-26T01:29:18.721Z,6.40
2023-04-26T01:31:45.963Z,6.50
2023-04-26T01:34:12.862Z,7.70
2023-04-26T01:36:39.526Z,7.20
2023-04-26T01:39:06.300Z,6.67
2023-04-26T01:41:33.699Z,6.67
2023-04-26T01:44:01.345Z,8.23
2023-04-26T01:46:28.055Z,6.80
2023-04-26T01:48:54.937Z,8.90
2023-04-26T01:51:23.476Z,7.77
2023-04-26T01:53:50.015Z,7.60
2023-04-26T01:56:16.725Z,7.83
2023-04-26T01:58:43.437Z,7.60
2023-04-26T02:01:10.058Z,7.20
2023-04-26T02:03:37.146Z,8.97
2023-04-26T02:06:03.852Z,7.80
2023-04-26T02:08:30.485Z,7.50
2023-04-26T02:10:57.125Z,6.73
2023-04-26T02:13:23.701Z,6.83
2023-04-26T02:15:51.350Z,7.63
2023-04-26T02:18:21.893Z,7.13
2023-04-26T02:20:50.011Z,6.90
2023-04-26T02:23:16.690Z,6.80
2023-04-26T02:25:46.850Z,6.57
2023-04-26T02:28:13.733Z,6.30
2023-04-26T02:30:40.472Z,5.73
2023-04-26T02:33:08.938Z,5.53
2023-04-26T02:35:39.544Z,5.63
2023-04-26T02:38:06.052Z,6.00
2023-04-26T02:40:32.693Z,5.90
2023-04-26T02:43:00.452Z,8.00
2023-04-26T02:45:27.242Z,5.17
2023-04-26T02:47:53.874Z,5.50
2023-04-26T02:50:20.992Z,5.63
2023-04-26T02:52:48.694Z,6.50
2023-04-26T02:55:15.251Z,4.67
2023-04-26T02:57:42.701Z,6.53
2023-04-26T03:00:09.845Z,5.80
2023-04-26T03:02:36.626Z,5.30
2023-04-26T03:05:03.740Z,6.03
2023-04-26T03:07:31.401Z,5.37
2023-04-26T03:09:58.041Z,6.13
2023-04-26T03:12:24.559Z,5.63
2023-04-26T03:14:51.210Z,6.13
2023-04-26T03:17:18.194Z,5.97
2023-04-26T03:19:44.906Z,5.77
2023-04-26T03:22:15.964Z,5.67
2023-04-26T03:24:43.601Z,5.97
2023-04-26T03:27:10.862Z,5.30
2023-04-26T03:29:37.633Z,6.90
2023-04-26T03:32:04.841Z,6.83
2023-04-26T03:34:31.623Z,6.67
2023-04-26T03:36:58.290Z,6.13
2023-04-26T03:39:24.939Z,6.70
2023-04-26T03:41:52.459Z,5.77
2023-04-26T03:44:18.993Z,6.50
2023-04-26T03:46:45.672Z,5.97
2023-04-26T03:49:12.167Z,6.27
2023-04-26T03:51:38.686Z,5.57
2023-04-26T03:54:05.420Z,6.93
2023-04-26T03:56:32.009Z,7.40
2023-04-26T03:58:59.302Z,6.30
2023-04-26T04:01:26.931Z,5.50
2023-04-26T04:03:54.035Z,7.03
2023-04-26T04:06:21.789Z,7.20
2023-04-26T04:08:48.440Z,6.43
2023-04-26T04:11:16.735Z,6.97
2023-04-26T04:13:43.520Z,6.73
2023-04-26T04:16:10.504Z,5.27
2023-04-26T04:18:37.185Z,6.27
2023-04-26T04:21:03.963Z,5.83
2023-04-26T04:23:30.812Z,5.83
2023-04-26T04:25:58.285Z,6.80
2023-04-26T04:28:24.839Z,5.50
2023-04-26T04:30:51.403Z,6.83
2023-04-26T04:33:19.102Z,6.20
2023-04-26T04:35:45.945Z,7.17
2023-04-26T04:38:13.130Z,6.37
2023-04-26T04:40:39.966Z,6.57
2023-04-26T04:43:07.209Z,5.40
2023-04-26T04:45:35.450Z,6.77
2023-04-26T04:48:05.114Z,7.07
2023-04-26T04:50:32.173Z,7.13
2023-04-26T04:52:58.832Z,7.33
2023-04-26T04:55:25.724Z,7.73
2023-04-26T04:57:52.229Z,7.03
2023-04-26T05:00:19.370Z,6.60
2023-04-26T05:02:58.415Z,7.53
2023-04-26T05:05:25.805Z,7.50
2023-04-26T05:07:52.439Z,7.30
2023-04-26T05:10:19.102Z,7.93
2023-04-26T05:12:46.480Z,8.00
2023-04-26T05:15:13.105Z,8.37
2023-04-26T05:17:39.890Z,8.67
2023-04-26T05:20:14.779Z,8.50
2023-04-26T05:22:41.530Z,8.20
2023-04-26T05:25:09.158Z,8.43
2023-04-26T05:27:37.324Z,7.80
2023-04-26T05:30:24.182Z,7.77
2023-04-26T05:33:06.996Z,7.63
2023-04-26T05:35:48.707Z,7.50
2023-04-26T05:38:15.550Z,8.93
2023-04-26T05:40:42.095Z,6.93
2023-04-26T05:43:08.672Z,7.03
2023-04-26T05:45:37.741Z,7.07
2023-04-26T05:48:05.361Z,8.17
2023-04-26T05:50:32.097Z,6.97
2023-04-26T05:52:58.820Z,7.70
2023-04-26T05:55:25.492Z,7.70
2023-04-26T05:57:52.122Z,8.20
2023-04-26T06:00:22.639Z,8.40
2023-04-26T06:02:49.284Z,7.73
2023-04-26T06:05:18.077Z,8.00
2023-04-26T06:07:44.804Z,8.03
2023-04-26T06:10:13.012Z,9.13
2023-04-26T06:12:40.044Z,7.87
2023-04-26T06:15:07.514Z,7.77
2023-04-26T06:17:37.546Z,8.30
2023-04-26T06:20:05.550Z,8.57
2023-04-26T06:22:32.076Z,8.87
2023-04-26T06:24:58.714Z,10.63
2023-04-26T06:27:26.420Z,9.90
2023-04-26T06:29:54.018Z,9.50
2023-04-26T06:32:22.210Z,8.70
2023-04-26T06:34:50.031Z,7.83
2023-04-26T06:37:16.692Z,8.87
2023-04-26T06:39:43.384Z,9.87
2023-04-26T06:42:11.533Z,8.73
2023-04-26T06:45:06.892Z,8.63
2023-04-26T06:47:34.742Z,8.40
2023-04-26T06:50:01.351Z,9.00
2023-04-26T06:52:29.740Z,8.60
2023-04-26T06:54:57.739Z,8.33
2023-04-26T06:57:24.595Z,9.40
2023-04-26T06:59:51.509Z,8.30
2023-04-26T07:02:18.302Z,8.10
2023-04-26T07:04:45.503Z,6.80
2023-04-26T07:07:13.632Z,7.90
2023-04-26T07:09:41.065Z,8.00
2023-04-26T07:12:07.753Z,9.13
2023-04-26T07:14:37.097Z,6.73
2023-04-26T07:17:05.057Z,8.80
2023-04-26T07:19:31.661Z,8.20
2023-04-26T07:21:58.161Z,8.13
2023-04-26T07:24:24.822Z,7.90
2023-04-26T07:26:51.361Z,8.00
2023-04-26T07:29:18.895Z,8.53
2023-04-26T07:31:46.422Z,8.80
2023-04-26T07:34:13.141Z,8.43
2023-04-26T07:36:39.734Z,8.33
2023-04-26T07:39:06.771Z,7.87
2023-04-26T07:41:33.361Z,8.20
2023-04-26T07:43:59.851Z,7.30
2023-04-26T07:46:26.389Z,6.87
2023-04-26T07:48:52.988Z,7.40
2023-04-26T07:51:19.473Z,6.87
2023-04-26T07:53:46.289Z,6.60
2023-04-26T07:56:12.861Z,7.30
2023-04-26T07:58:39.635Z,5.93
2023-04-26T08:01:06.601Z,6.33
2023-04-26T08:03:33.414Z,7.70
2023-04-26T08:06:00.536Z,7.13
2023-04-26T08:08:28.038Z,6.30
2023-04-26T08:10:55.681Z,7.30
2023-04-26T08:13:22.586Z,6.83
2023-04-26T08:15:49.106Z,6.57
2023-04-26T08:18:15.577Z,6.97
2023-04-26T08:20:42.483Z,6.50
2023-04-26T08:23:09.130Z,6.10
2023-04-26T08:25:35.888Z,6.70
2023-04-26T08:28:02.573Z,5.67
2023-04-26T08:30:29.584Z,5.93
2023-04-26T08:32:56.643Z,5.53
2023-04-26T08:35:23.264Z,7.63
2023-04-26T08:37:49.813Z,7.00
2023-04-26T08:40:24.909Z,5.77
2023-04-26T08:42:53.484Z,5.90
2023-04-26T08:45:21.505Z,6.60
2023-04-26T08:47:53.731Z,7.37
2023-04-26T08:50:23.177Z,7.17
2023-04-26T08:52:51.505Z,6.30
2023-04-26T08:55:20.116Z,6.73
2023-04-26T08:57:48.382Z,7.07
2023-04-26T09:00:17.079Z,6.73
2023-04-26T09:02:49.673Z,7.10
2023-04-26T09:05:17.092Z,6.40
2023-04-26T09:07:48.121Z,6.13
2023-04-26T09:10:22.051Z,5.33
2023-04-26T09:12:53.278Z,5.77
2023-04-26T09:15:22.725Z,5.43
2023-04-26T09:17:51.402Z,4.27
2023-04-26T09:20:29.084Z,6.30
2023-04-26T09:23:09.941Z,5.17
2023-04-26T09:25:37.756Z,3.60
2023-04-26T09:28:18.468Z,5.30
2023-04-26T09:30:44.944Z,3.97
2023-04-26T09:33:11.481Z,4.80
2023-04-26T09:35:40.643Z,5.20
2023-04-26T09:38:12.210Z,4.50
2023-04-26T09:40:47.619Z,5.00
2023-04-26T09:43:21.892Z,4.33
2023-04-26T09:45:52.392Z,4.40
2023-04-26T09:48:30.855Z,5.13
2023-04-26T09:50:58.933Z,4.20
2023-04-26T09:53:41.484Z,4.43
2023-04-26T09:56:13.505Z,4.10
2023-04-26T09:58:58.276Z,4.90
2023-04-26T10:01:26.624Z,5.00
2023-04-26T10:03:53.472Z,5.40
2023-04-26T10:06:20.304Z,3.93
2023-04-26T10:08:46.883Z,4.00
2023-04-26T10:11:13.875Z,3.67
2023-04-26T10:13:41.783Z,4.40
2023-04-26T10:16:09.947Z,5.00
2023-04-26T10:18:37.291Z,4.30
2023-04-26T10:21:14.352Z,4.30
2023-04-26T10:23:41.502Z,4.33
2023-04-26T10:26:47.054Z,3.50
2023-04-26T10:29:14.591Z,4.30
2023-04-26T10:32:03.888Z,4.43
2023-04-26T10:34:31.780Z,3.20
2023-04-26T10:37:12.759Z,4.00
2023-04-26T10:39:41.757Z,3.70
2023-04-26T10:42:27.960Z,3.73
2023-04-26T10:44:59.764Z,2.77
2023-04-26T10:47:34.568Z,4.50
2023-04-26T10:50:11.316Z,3.40
2023-04-26T10:53:04.303Z,3.10
2023-04-26T10:55:41.667Z,2.90
2023-04-26T10:58:33.951Z,3.37
2023-04-26T11:01:11.775Z,2.90
2023-04-26T11:03:41.351Z,3.37
2023-04-26T11:06:09.810Z,2.87
2023-04-26T11:08:36.947Z,4.17
2023-04-26T11:11:03.368Z,2.87
2023-04-26T11:13:35.250Z,3.40
2023-04-26T11:16:04.206Z,4.40
2023-04-26T11:18:32.237Z,4.33
2023-04-26T11:20:59.502Z,3.80
2023-04-26T11:23:29.593Z,3.17
2023-04-26T11:26:00.340Z,4.63
2023-04-26T11:28:26.892Z,2.87
2023-04-26T11:30:54.039Z,2.77
2023-04-26T11:33:24.873Z,3.50
2023-04-26T11:35:55.683Z,3.23
2023-04-26T11:38:23.222Z,3.27
2023-04-26T11:40:57.614Z,2.97
2023-04-26T11:43:37.682Z,2.40
2023-04-26T11:46:05.747Z,3.00
2023-04-26T11:48:34.988Z,3.37
2023-04-26T11:51:03.839Z,3.03
2023-04-26T11:53:37.803Z,4.60
2023-04-26T11:56:14.122Z,3.40
2023-04-26T11:58:40.612Z,3.37
2023-04-26T12:01:07.101Z,3.40
2023-04-26T12:03:38.308Z,3.20
2023-04-26T12:06:05.133Z,3.60
2023-04-26T12:08:33.445Z,3.80
2023-04-26T12:11:02.066Z,3.63
2023-04-26T12:13:29.663Z,3.70
2023-04-26T12:15:56.362Z,3.30
2023-04-26T12:18:30.309Z,3.07
2023-04-26T12:20:59.270Z,3.10
2023-04-26T12:23:26.621Z,3.50
2023-04-26T12:26:00.509Z,3.17
2023-04-26T12:28:26.948Z,3.07
2023-04-26T12:30:53.441Z,3.83
2023-04-26T12:33:22.943Z,3.33
2023-04-26T12:35:50.329Z,3.47
2023-04-26T12:38:17.608Z,3.40
2023-04-26T12:40:46.886Z,3.40
2023-04-26T12:43:13.356Z,3.17
2023-04-26T12:45:39.848Z,3.33
2023-04-26T12:48:06.584Z,3.30
2023-04-26T12:50:33.258Z,3.50
2023-04-26T12:52:59.815Z,4.33
2023-04-26T12:55:26.724Z,2.77
2023-04-26T12:57:53.248Z,3.77
2023-04-26T13:00:21.468Z,3.60
2023-04-26T13:02:48.049Z,2.97
2023-04-26T13:05:14.606Z,2.73
2023-04-26T13:07:43.738Z,3.10
2023-04-26T13:10:12.921Z,3.00
2023-04-26T13:12:40.253Z,3.50
2023-04-26T13:15:08.410Z,3.37
2023-04-26T13:17:39.956Z,3.00
2023-04-26T13:20:07.439Z,3.47
2023-04-26T13:22:34.639Z,3.13
2023-04-26T13:25:01.145Z,2.57
2023-04-26T13:27:30.527Z,2.33
2023-04-26T13:29:58.337Z,2.87
2023-04-26T13:32:24.874Z,2.70
2023-04-26T13:34:51.814Z,3.50
2023-04-26T13:37:21.217Z,2.50
2023-04-26T13:39:48.029Z,3.63
2023-04-26T13:42:16.216Z,2.70
2023-04-26T13:44:42.985Z,2.30
2023-04-26T13:47:09.449Z,2.90
2023-04-26T13:49:36.197Z,2.50
2023-04-26T13:52:02.932Z,2.80
2023-04-26T13:54:29.699Z,2.07
2023-04-26T13:56:58.274Z,2.60
2023-04-26T13:59:24.774Z,2.20
2023-04-26T14:01:54.248Z,2.37
2023-04-26T14:04:22.026Z,1.87
2023-04-26T14:06:48.878Z,2.20
2023-04-26T14:09:15.492Z,2.43
2023-04-26T14:11:42.137Z,3.50
2023-04-26T14:14:08.674Z,2.80
2023-04-26T14:16:35.345Z,3.30
2023-04-26T14:19:01.929Z,2.57
2023-04-26T14:21:28.417Z,3.27
2023-04-26T14:23:54.933Z,2.70
2023-04-26T14:26:21.630Z,2.70
2023-04-26T14:28:48.082Z,3.40
2023-04-26T14:31:17.665Z,4.43
2023-04-26T14:33:44.280Z,2.37
2023-04-26T14:36:11.023Z,2.60
2023-04-26T14:38:37.626Z,3.30
2023-04-26T14:41:04.120Z,2.90
2023-04-26T14:43:30.585Z,2.70
2023-04-26T14:45:58.738Z,3.17
2023-04-26T14:48:25.951Z,2.60
2023-04-26T14:51:01.968Z,3.07
2023-04-26T14:53:28.418Z,2.73
2023-04-26T14:55:59.143Z,3.03
2023-04-26T14:58:26.431Z,2.40
2023-04-26T15:00:53.586Z,3.03
2023-04-26T15:03:20.830Z,3.10
2023-04-26T15:05:48.721Z,2.67
2023-04-26T15:08:15.542Z,3.40
2023-04-26T15:10:42.128Z,3.60
2023-04-26T15:13:08.685Z,3.67
2023-04-26T15:15:35.168Z,2.20
2023-04-26T15:18:01.962Z,3.30
2023-04-26T15:20:28.662Z,3.47
2023-04-26T15:22:55.214Z,3.03
2023-04-26T15:25:21.735Z,2.70
2023-04-26T15:27:50.303Z,2.57
2023-04-26T15:30:16.754Z,2.63
2023-04-26T15:32:47.332Z,3.07
2023-04-26T15:35:15.333Z,3.37
2023-04-26T15:37:41.958Z,2.17
2023-04-26T15:40:10.501Z,2.53
2023-04-26T15:42:37.560Z,3.20
2023-04-26T15:45:04.287Z,2.47
2023-04-26T15:47:30.989Z,2.53
2023-04-26T15:50:02.096Z,2.77
2023-04-26T15:52:28.588Z,2.93
2023-04-26T15:54:55.232Z,3.10
2023-04-26T15:57:21.774Z,2.87
2023-04-26T15:59:48.736Z,2.63
2023-04-26T16:02:15.319Z,2.67
2023-04-26T16:04:42.133Z,2.57
2023-04-26T16:07:08.836Z,2.67
2023-04-26T16:09:36.109Z,2.60
2023-04-26T16:12:03.533Z,2.87
2023-04-26T16:14:31.184Z,4.10
2023-04-26T16:17:00.697Z,2.90
2023-04-26T16:19:27.533Z,2.90
2023-04-26T16:21:54.052Z,2.23
2023-04-26T16:24:20.951Z,3.00
2023-04-26T16:26:47.470Z,2.90
2023-04-26T16:29:14.777Z,2.80
2023-04-26T16:31:41.447Z,2.20
2023-04-26T16:34:08.024Z,2.33
2023-04-26T16:36:35.469Z,2.47
2023-04-26T16:39:01.967Z,2.67
2023-04-26T16:41:28.534Z,2.70
2023-04-26T16:43:56.012Z,2.37
2023-04-26T16:46:23.387Z,2.60
2023-04-26T16:48:50.332Z,2.47
2023-04-26T16:51:16.857Z,2.87
2023-04-26T16:53:43.395Z,2.10
2023-04-26T16:56:10.126Z,2.93
2023-04-26T16:58:37.431Z,2.40
2023-04-26T17:01:04.678Z,2.13
2023-04-26T17:03:31.346Z,2.73
2023-04-26T17:05:58.208Z,2.20
2023-04-26T17:08:24.749Z,2.13
2023-04-26T17:10:51.900Z,3.83
2023-04-26T17:13:18.934Z,2.67
2023-04-26T17:15:46.135Z,2.03
2023-04-26T17:18:12.738Z,2.70
2023-04-26T17:20:39.356Z,2.50
2023-04-26T17:23:07.790Z,2.93
2023-04-26T17:25:34.554Z,2.40
2023-04-26T17:28:01.020Z,2.37
2023-04-26T17:30:27.765Z,2.37
2023-04-26T17:32:54.245Z,2.13
2023-04-26T17:35:20.955Z,2.50
2023-04-26T17:37:49.840Z,2.30
2023-04-26T17:40:18.006Z,2.17
2023-04-26T17:42:45.991Z,2.50
2023-04-26T17:45:14.153Z,2.27
2023-04-26T17:47:41.773Z,2.23
2023-04-26T17:50:09.261Z,2.10
2023-04-26T17:52:36.235Z,2.20
2023-04-26T17:55:05.214Z,2.17
2023-04-26T17:57:32.010Z,2.40
2023-04-26T17:59:59.070Z,3.07
2023-04-26T18:02:26.024Z,2.50
2023-04-26T18:04:54.787Z,2.83
2023-04-26T18:07:22.006Z,2.47
2023-04-26T18:09:49.056Z,2.00
2023-04-26T18:12:15.980Z,2.57
2023-04-26T18:14:45.638Z,2.63
2023-04-26T18:17:13.362Z,2.43
2023-04-26T18:19:40.048Z,2.03
2023-04-26T18:22:07.199Z,2.47
2023-04-26T18:24:34.616Z,2.50
2023-04-26T18:27:02.591Z,2.10
2023-04-26T18:29:29.555Z,2.23
2023-04-26T18:31:56.155Z,1.70
2023-04-26T18:34:22.726Z,1.77
2023-04-26T18:36:49.381Z,1.80
2023-04-26T18:39:16.081Z,1.87
2023-04-26T18:41:42.688Z,3.10
2023-04-26T18:44:13.139Z,2.30
2023-04-26T18:46:41.482Z,2.13
2023-04-26T18:49:08.718Z,2.93
2023-04-26T18:51:35.546Z,2.20
2023-04-26T18:54:02.349Z,3.10
2023-04-26T18:56:29.783Z,2.13
2023-04-26T18:58:56.361Z,3.07
2023-04-26T19:01:23.265Z,2.60
2023-04-26T19:03:50.005Z,3.33
2023-04-26T19:06:16.730Z,2.47
2023-04-26T19:08:44.349Z,2.33
2023-04-26T19:11:12.395Z,2.97
2023-04-26T19:13:40.264Z,3.10
2023-04-26T19:16:08.162Z,2.80
2023-04-26T19:18:40.325Z,3.20
2023-04-26T19:21:08.490Z,2.80
2023-04-26T19:23:36.097Z,2.70
2023-04-26T19:26:08.121Z,2.30
2023-04-26T19:28:35.215Z,3.30
2023-04-26T19:31:01.873Z,3.00
2023-04-26T19:33:28.715Z,3.10
2023-04-26T19:35:56.551Z,3.07
2023-04-26T19:38:24.206Z,2.93
2023-04-26T19:40:53.678Z,2.93
2023-04-26T19:43:20.838Z,2.87
2023-04-26T19:45:47.762Z,3.37
2023-04-26T19:48:14.362Z,3.30
2023-04-26T19:50:42.287Z,2.63
2023-04-26T19:53:09.799Z,3.27
2023-04-26T19:55:37.506Z,3.07
2023-04-26T19:58:05.032Z,3.23
2023-04-26T20:00:31.847Z,4.13
2023-04-26T20:02:59.098Z,3.83
2023-04-26T20:05:26.542Z,3.60
2023-04-26T20:07:53.743Z,3.60
2023-04-26T20:10:23.742Z,3.50
2023-04-26T20:12:50.472Z,4.13
2023-04-26T20:15:17.390Z,3.80
2023-04-26T20:17:43.924Z,3.90
2023-04-26T20:20:11.912Z,3.70
2023-04-26T20:22:39.441Z,3.93
2023-04-26T20:25:06.877Z,3.80
2023-04-26T20:27:33.772Z,4.33
2023-04-26T20:30:01.060Z,4.63
2023-04-26T20:32:27.792Z,4.67
2023-04-26T20:34:54.723Z,4.70
2023-04-26T20:37:22.053Z,4.50
2023-04-26T20:39:49.022Z,4.27
2023-04-26T20:42:16.055Z,4.10
2023-04-26T20:44:42.881Z,4.80
2023-04-26T20:47:09.391Z,4.50
2023-04-26T20:49:35.910Z,4.10
2023-04-26T20:52:02.401Z,4.20
2023-04-26T20:54:28.896Z,3.80
2023-04-26T20:56:55.568Z,4.93
2023-04-26T20:59:23.083Z,4.70
2023-04-26T21:01:50.803Z,5.30
2023-04-26T21:04:17.698Z,5.50
2023-04-26T21:06:44.574Z,4.73
2023-04-26T21:09:11.597Z,4.97
2023-04-26T21:11:38.095Z,5.23
2023-04-26T21:14:05.152Z,4.53
2023-04-26T21:16:31.654Z,4.70
2023-04-26T21:18:58.140Z,4.53
2023-04-26T21:21:26.995Z,4.67
2023-04-26T21:23:54.625Z,5.13
2023-04-26T21:26:21.362Z,3.93
2023-04-26T21:28:48.697Z,4.30
2023-04-26T21:31:15.821Z,4.30
2023-04-26T21:33:42.588Z,4.57
2023-04-26T21:36:09.369Z,5.07
2023-04-26T21:38:35.890Z,5.00
2023-04-26T21:41:02.419Z,5.23
2023-04-26T21:43:28.887Z,3.63
2023-04-26T21:45:57.808Z,4.40
2023-04-26T21:48:24.972Z,3.90
2023-04-26T21:50:51.772Z,4.60
2023-04-26T21:53:18.674Z,4.80
2023-04-26T21:55:53.383Z,4.90
2023-04-26T21:58:21.431Z,4.90
2023-04-26T22:00:48.783Z,4.30
2023-04-26T22:03:16.201Z,4.23
2023-04-26T22:05:42.882Z,3.90
2023-04-26T22:08:09.316Z,4.30
2023-04-26T22:10:36.401Z,4.57
2023-04-26T22:13:03.348Z,3.80
2023-04-26T22:15:30.060Z,3.80
2023-04-26T22:17:56.712Z,4.00
2023-04-26T22:20:23.370Z,4.03
2023-04-26T22:22:49.917Z,4.00
2023-04-26T22:25:16.490Z,4.33
2023-04-26T22:27:42.935Z,5.20
2023-04-26T22:30:23.691Z,3.93
2023-04-26T22:32:57.170Z,4.67
2023-04-26T22:35:25.146Z,4.10
2023-04-26T22:37:51.802Z,5.10
2023-04-26T22:40:18.652Z,4.10
2023-04-26T22:42:45.365Z,4.00
2023-04-26T22:45:12.714Z,4.50
2023-04-26T22:47:40.268Z,4.13
2023-04-26T22:50:08.005Z,3.80
2023-04-26T22:52:35.220Z,4.23
2023-04-26T22:55:01.878Z,4.80
2023-04-26T22:57:29.563Z,4.50
2023-04-26T22:59:56.477Z,3.87
2023-04-26T23:02:23.152Z,3.60
2023-04-26T23:04:49.794Z,4.00
2023-04-26T23:07:16.479Z,4.10
2023-04-26T23:09:43.116Z,4.90
2023-04-26T23:12:09.850Z,4.00
2023-04-26T23:14:36.388Z,3.77
2023-04-26T23:17:03.260Z,4.47
2023-04-26T23:19:29.879Z,3.80
2023-04-26T23:21:56.446Z,3.33
2023-04-26T23:24:22.952Z,3.53
2023-04-26T23:26:49.441Z,3.63
2023-04-26T23:29:15.913Z,5.03
2023-04-26T23:31:42.552Z,5.30
2023-04-26T23:34:09.229Z,4.33
2023-04-26T23:36:35.670Z,4.60
2023-04-26T23:39:02.104Z,4.37
2023-04-26T23:41:28.548Z,4.20
2023-04-26T23:43:55.038Z,4.17
2023-04-26T23:46:21.534Z,4.60
2023-04-26T23:48:48.006Z,5.40
2023-04-26T23:51:14.473Z,3.93
2023-04-26T23:53:41.097Z,4.40
2023-04-26T23:56:08.448Z,3.70
2023-04-26T23:58:35.006Z,4.10
